PWSweather.com
Personal Weather Stations
Station Observations
KCOGRAND2
Redlands, Southcamp Road & Dakota Circle, Grand Junction, CO 81507

Redlands, Southcamp Road & Dakota CircleGrand Junction, CO 81507

Lat: 39.055, Lon: -108.637

Elevation: 4870

Station Type: RadioShack WX200

Latest ConditionsUpdated 1:57:30 PM MDT Thursday, Aug 21, 2014
Currently Today's Max Today's Min Today's Average
Temperature 76.6°F24.8°C 76.6°F24.8°C 58.8°F14.9°C 66.4°F19.1°C
Dew Point 34.9°F1.6°C 49.8°F9.9°C 33.8°F1.0°C 42.6°F5.9°C
Winds 4.0 mph SW6.4 kmh SW 6.0 mph S9.7 kmh S - 2.3 mph 3.7 kmh
Wind Gusts 9.2 mph14.8 kmh 10.1 mph16.3 kmh - -
Humidity 22% 67% 21% 44%
Pressure 25.13 in851.0 mb 25.16 in852.0 mb 25.10 in850.0 mb -
Hour Temp Dew Point Humidity Winds Wind Gusts Pressure Precip Precip Rate Daily Precip Total
01:57 PM 76.6°F24.8°C 34.9°F1.6°C 22% 4.0 mph SW6.4 kmh SW 9.2 mph14.8 kmh 25.13 in851.0 mb 0.00 in0.0 mm 0.00 in/hr0.0 mm/hr 0.00 in0.0 mm
01:52 PM 76.6°F24.8°C 33.8°F1.0°C 21% 3.0 mph SW4.8 kmh SW 6.3 mph10.1 kmh 25.13 in851.0 mb 0.00 in0.0 mm 0.00 in/hr0.0 mm/hr 0.00 in0.0 mm
01:47 PM 76.6°F24.8°C 36.0°F2.2°C 23% 4.0 mph S6.4 kmh S 6.7 mph10.8 kmh 25.13 in851.0 mb 0.00 in0.0 mm 0.00 in/hr0.0 mm/hr 0.00 in0.0 mm
01:42 PM 76.3°F24.6°C 35.8°F2.1°C 23% 5.0 mph S8.0 kmh S 6.9 mph11.1 kmh 25.13 in851.0 mb 0.00 in0.0 mm 0.00 in/hr0.0 mm/hr 0.00 in0.0 mm
01:37 PM 76.3°F24.6°C 34.7°F1.5°C 22% 5.0 mph SSW8.0 kmh SSW 8.7 mph14.0 kmh 25.13 in851.0 mb 0.00 in0.0 mm 0.00 in/hr0.0 mm/hr 0.00 in0.0 mm
01:32 PM 76.5°F24.7°C 37.9°F3.3°C 25% 5.0 mph SSW8.0 kmh SSW 8.3 mph13.4 kmh 25.13 in851.0 mb 0.00 in0.0 mm 0.00 in/hr0.0 mm/hr 0.00 in0.0 mm
01:27 PM 76.3°F24.6°C 36.9°F2.7°C 24% 6.0 mph S9.7 kmh S 8.3 mph13.4 kmh 25.13 in851.0 mb 0.00 in0.0 mm 0.00 in/hr0.0 mm/hr 0.00 in0.0 mm
01:22 PM 76.5°F24.7°C 39.0°F3.9°C 26% 5.0 mph S8.0 kmh S 8.7 mph14.0 kmh 25.13 in851.0 mb 0.00 in0.0 mm 0.00 in/hr0.0 mm/hr 0.00 in0.0 mm
01:17 PM 76.5°F24.7°C 37.0°F2.8°C 24% 4.0 mph SW6.4 kmh SW 8.3 mph13.4 kmh 25.13 in851.0 mb 0.00 in0.0 mm 0.00 in/hr0.0 mm/hr 0.00 in0.0 mm
01:12 PM 76.1°F24.5°C 37.8°F3.2°C 25% 4.0 mph SW6.4 kmh SW 6.9 mph11.1 kmh 25.13 in851.0 mb 0.00 in0.0 mm 0.00 in/hr0.0 mm/hr 0.00 in0.0 mm
01:07 PM 75.6°F24.2°C 38.3°F3.5°C 26% 5.0 mph SW8.0 kmh SW 7.4 mph11.9 kmh 25.13 in851.0 mb 0.00 in0.0 mm 0.00 in/hr0.0 mm/hr 0.00 in0.0 mm
01:02 PM 75.4°F24.1°C 37.0°F2.8°C 25% 5.0 mph SSW8.0 kmh SSW 10.1 mph16.3 kmh 25.13 in851.0 mb 0.00 in0.0 mm 0.00 in/hr0.0 mm/hr 0.00 in0.0 mm
12:57 PM 75.6°F24.2°C 39.2°F4.0°C 27% 5.0 mph S8.0 kmh S 8.3 mph13.4 kmh 25.16 in852.0 mb 0.00 in0.0 mm 0.00 in/hr0.0 mm/hr 0.00 in0.0 mm
12:52 PM 75.6°F24.2°C 41.0°F5.0°C 29% 4.0 mph SSE6.4 kmh SSE 8.3 mph13.4 kmh 25.16 in852.0 mb 0.00 in0.0 mm 0.00 in/hr0.0 mm/hr 0.00 in0.0 mm
12:47 PM 75.4°F24.1°C 41.7°F5.4°C 30% 3.0 mph SSE4.8 kmh SSE 5.8 mph9.3 kmh 25.16 in852.0 mb 0.00 in0.0 mm 0.00 in/hr0.0 mm/hr 0.00 in0.0 mm
12:42 PM 75.4°F24.1°C 41.7°F5.4°C 30% 4.0 mph SSE6.4 kmh SSE 6.3 mph10.1 kmh 25.16 in852.0 mb 0.00 in0.0 mm 0.00 in/hr0.0 mm/hr 0.00 in0.0 mm
12:37 PM 75.4°F24.1°C 40.8°F4.9°C 29% 4.0 mph S6.4 kmh S 7.8 mph12.6 kmh 25.16 in852.0 mb 0.00 in0.0 mm 0.00 in/hr0.0 mm/hr 0.00 in0.0 mm
12:32 PM 75.2°F24.0°C 39.9°F4.4°C 28% 5.0 mph S8.0 kmh S 6.9 mph11.1 kmh 25.16 in852.0 mb 0.00 in0.0 mm 0.00 in/hr0.0 mm/hr 0.00 in0.0 mm
12:27 PM 75.4°F24.1°C 39.0°F3.9°C 27% 4.0 mph SSW6.4 kmh SSW 7.8 mph12.6 kmh 25.16 in852.0 mb 0.00 in0.0 mm 0.00 in/hr0.0 mm/hr 0.00 in0.0 mm
12:22 PM 75.6°F24.2°C 42.8°F6.0°C 31% 2.0 mph WSW3.2 kmh WSW 6.7 mph10.8 kmh 25.16 in852.0 mb 0.00 in0.0 mm 0.00 in/hr0.0 mm/hr 0.00 in0.0 mm
12:17 PM 75.0°F23.9°C 41.5°F5.3°C 30% 2.0 mph WSW3.2 kmh WSW 5.4 mph8.7 kmh 25.16 in852.0 mb 0.00 in0.0 mm 0.00 in/hr0.0 mm/hr 0.00 in0.0 mm
12:12 PM 74.8°F23.8°C 42.1°F5.6°C 31% 4.0 mph SW6.4 kmh SW 5.8 mph9.3 kmh 25.16 in852.0 mb 0.00 in0.0 mm 0.00 in/hr0.0 mm/hr 0.00 in0.0 mm
12:07 PM 74.3°F23.5°C 40.8°F4.9°C 30% 4.0 mph SSW6.4 kmh SSW 6.9 mph11.1 kmh 25.16 in852.0 mb 0.00 in0.0 mm 0.00 in/hr0.0 mm/hr 0.00 in0.0 mm
12:02 PM 74.5°F23.6°C 41.9°F5.5°C 31% 4.0 mph S6.4 kmh S 6.7 mph10.8 kmh 25.16 in852.0 mb 0.00 in0.0 mm 0.00 in/hr0.0 mm/hr 0.00 in0.0 mm
11:57 AM 74.8°F23.8°C 42.1°F5.6°C 31% 2.0 mph WSW3.2 kmh WSW 7.4 mph11.9 kmh 25.16 in852.0 mb 0.00 in0.0 mm 0.00 in/hr0.0 mm/hr 0.00 in0.0 mm
11:52 AM 74.5°F23.6°C 41.9°F5.5°C 31% 2.0 mph W3.2 kmh W 3.6 mph5.8 kmh 25.16 in852.0 mb 0.00 in0.0 mm 0.00 in/hr0.0 mm/hr 0.00 in0.0 mm
11:47 AM 73.9°F23.3°C 41.4°F5.2°C 31% 2.0 mph W3.2 kmh W 4.5 mph7.2 kmh 25.16 in852.0 mb 0.00 in0.0 mm 0.00 in/hr0.0 mm/hr 0.00 in0.0 mm
11:42 AM 74.1°F23.4°C 41.5°F5.3°C 31% 2.0 mph W3.2 kmh W 4.9 mph7.9 kmh 25.16 in852.0 mb 0.00 in0.0 mm 0.00 in/hr0.0 mm/hr 0.00 in0.0 mm
11:37 AM 73.8°F23.2°C 41.2°F5.1°C 31% 3.0 mph W4.8 kmh W 4.9 mph7.9 kmh 25.16 in852.0 mb 0.00 in0.0 mm 0.00 in/hr0.0 mm/hr 0.00 in0.0 mm
11:32 AM 73.2°F22.9°C 41.5°F5.3°C 32% 3.0 mph W4.8 kmh W 6.3 mph10.1 kmh 25.16 in852.0 mb 0.00 in0.0 mm 0.00 in/hr0.0 mm/hr 0.00 in0.0 mm
11:27 AM 73.0°F22.8°C 41.4°F5.2°C 32% 3.0 mph WNW4.8 kmh WNW 7.8 mph12.6 kmh 25.16 in852.0 mb 0.00 in0.0 mm 0.00 in/hr0.0 mm/hr 0.00 in0.0 mm
11:22 AM 72.7°F22.6°C 41.2°F5.1°C 32% 2.0 mph NW3.2 kmh NW 6.3 mph10.1 kmh 25.16 in852.0 mb 0.00 in0.0 mm 0.00 in/hr0.0 mm/hr 0.00 in0.0 mm
11:17 AM 73.2°F22.9°C 42.4°F5.8°C 33% 2.0 mph NW3.2 kmh NW 5.4 mph8.7 kmh 25.16 in852.0 mb 0.00 in0.0 mm 0.00 in/hr0.0 mm/hr 0.00 in0.0 mm
11:12 AM 72.5°F22.5°C 41.7°F5.4°C 33% 2.0 mph NNW3.2 kmh NNW 6.3 mph10.1 kmh 25.16 in852.0 mb 0.00 in0.0 mm 0.00 in/hr0.0 mm/hr 0.00 in0.0 mm
11:07 AM 72.3°F22.4°C 40.8°F4.9°C 32% 3.0 mph NNW4.8 kmh NNW 6.3 mph10.1 kmh 25.16 in852.0 mb 0.00 in0.0 mm 0.00 in/hr0.0 mm/hr 0.00 in0.0 mm
11:02 AM 72.9°F22.7°C 41.2°F5.1°C 32% 3.0 mph NNW4.8 kmh NNW 6.3 mph10.1 kmh 25.16 in852.0 mb 0.00 in0.0 mm 0.00 in/hr0.0 mm/hr 0.00 in0.0 mm
10:57 AM 72.5°F22.5°C 41.7°F5.4°C 33% 4.0 mph NNW6.4 kmh NNW 7.4 mph11.9 kmh 25.16 in852.0 mb 0.00 in0.0 mm 0.00 in/hr0.0 mm/hr 0.00 in0.0 mm
10:52 AM 72.0°F22.2°C 40.5°F4.7°C 32% 4.0 mph W6.4 kmh W 6.9 mph11.1 kmh 25.16 in852.0 mb 0.00 in0.0 mm 0.00 in/hr0.0 mm/hr 0.00 in0.0 mm
10:47 AM 71.8°F22.1°C 40.3°F4.6°C 32% 2.0 mph WNW3.2 kmh WNW 7.4 mph11.9 kmh 25.16 in852.0 mb 0.00 in0.0 mm 0.00 in/hr0.0 mm/hr 0.00 in0.0 mm
10:42 AM 72.1°F22.3°C 41.4°F5.2°C 33% 1.0 mph N1.6 kmh N 6.3 mph10.1 kmh 25.16 in852.0 mb 0.00 in0.0 mm 0.00 in/hr0.0 mm/hr 0.00 in0.0 mm
10:37 AM 72.7°F22.6°C 41.9°F5.5°C 33% 1.0 mph NNE1.6 kmh NNE 3.6 mph5.8 kmh 25.16 in852.0 mb 0.00 in0.0 mm 0.00 in/hr0.0 mm/hr 0.00 in0.0 mm
10:32 AM 71.8°F22.1°C 40.3°F4.6°C 32% 3.0 mph NE4.8 kmh NE 5.8 mph9.3 kmh 25.16 in852.0 mb 0.00 in0.0 mm 0.00 in/hr0.0 mm/hr 0.00 in0.0 mm
10:27 AM 71.6°F22.0°C 41.0°F5.0°C 33% 3.0 mph NNE4.8 kmh NNE 7.4 mph11.9 kmh 25.16 in852.0 mb 0.00 in0.0 mm 0.00 in/hr0.0 mm/hr 0.00 in0.0 mm
10:22 AM 72.0°F22.2°C 41.4°F5.2°C 33% 3.0 mph N4.8 kmh N 6.7 mph10.8 kmh 25.16 in852.0 mb 0.00 in0.0 mm 0.00 in/hr0.0 mm/hr 0.00 in0.0 mm
10:17 AM 71.2°F21.8°C 41.4°F5.2°C 34% 5.0 mph N8.0 kmh N 8.3 mph13.4 kmh 25.16 in852.0 mb 0.00 in0.0 mm 0.00 in/hr0.0 mm/hr 0.00 in0.0 mm
10:12 AM 70.5°F21.4°C 40.8°F4.9°C 34% 5.0 mph N8.0 kmh N 9.2 mph14.8 kmh 25.16 in852.0 mb 0.00 in0.0 mm 0.00 in/hr0.0 mm/hr 0.00 in0.0 mm
10:06 AM 70.9°F21.6°C 43.3°F6.3°C 37% 4.0 mph N6.4 kmh N 6.7 mph10.8 kmh 25.16 in852.0 mb 0.00 in0.0 mm 0.00 in/hr0.0 mm/hr 0.00 in0.0 mm
10:01 AM 69.6°F20.9°C 43.5°F6.4°C 39% 4.0 mph NNW6.4 kmh NNW 6.9 mph11.1 kmh 25.16 in852.0 mb 0.00 in0.0 mm 0.00 in/hr0.0 mm/hr 0.00 in0.0 mm
09:56 AM 68.5°F20.3°C 43.3°F6.3°C 40% 4.0 mph NNW6.4 kmh NNW 6.7 mph10.8 kmh 25.16 in852.0 mb 0.00 in0.0 mm 0.00 in/hr0.0 mm/hr 0.00 in0.0 mm
09:51 AM 68.4°F20.2°C 43.2°F6.2°C 40% 4.0 mph N6.4 kmh N 6.7 mph10.8 kmh 25.16 in852.0 mb 0.00 in0.0 mm 0.00 in/hr0.0 mm/hr 0.00 in0.0 mm
09:46 AM 68.4°F20.2°C 43.2°F6.2°C 40% 5.0 mph N8.0 kmh N 8.3 mph13.4 kmh 25.16 in852.0 mb 0.00 in0.0 mm 0.00 in/hr0.0 mm/hr 0.00 in0.0 mm
09:41 AM 68.2°F20.1°C 43.5°F6.4°C 41% 4.0 mph N6.4 kmh N 7.4 mph11.9 kmh 25.16 in852.0 mb 0.00 in0.0 mm 0.00 in/hr0.0 mm/hr 0.00 in0.0 mm
09:36 AM 67.5°F19.7°C 43.5°F6.4°C 42% 4.0 mph N6.4 kmh N 7.8 mph12.6 kmh 25.16 in852.0 mb 0.00 in0.0 mm 0.00 in/hr0.0 mm/hr 0.00 in0.0 mm
09:31 AM 66.9°F19.4°C 44.2°F6.8°C 44% 4.0 mph NNE6.4 kmh NNE 6.7 mph10.8 kmh 25.16 in852.0 mb 0.00 in0.0 mm 0.00 in/hr0.0 mm/hr 0.00 in0.0 mm
09:26 AM 66.6°F19.2°C 44.6°F7.0°C 45% 4.0 mph NNE6.4 kmh NNE 5.8 mph9.3 kmh 25.16 in852.0 mb 0.00 in0.0 mm 0.00 in/hr0.0 mm/hr 0.00 in0.0 mm
09:21 AM 66.6°F19.2°C 44.6°F7.0°C 45% 4.0 mph N6.4 kmh N 6.3 mph10.1 kmh 25.16 in852.0 mb 0.00 in0.0 mm 0.00 in/hr0.0 mm/hr 0.00 in0.0 mm
09:16 AM 66.4°F19.1°C 44.4°F6.9°C 45% 4.0 mph N6.4 kmh N 6.3 mph10.1 kmh 25.16 in852.0 mb 0.00 in0.0 mm 0.00 in/hr0.0 mm/hr 0.00 in0.0 mm
09:11 AM 66.4°F19.1°C 44.4°F6.9°C 45% 3.0 mph NNE4.8 kmh NNE 6.7 mph10.8 kmh 25.16 in852.0 mb 0.00 in0.0 mm 0.00 in/hr0.0 mm/hr 0.00 in0.0 mm
09:06 AM 66.7°F19.3°C 45.3°F7.4°C 46% 1.0 mph NNE1.6 kmh NNE 4.5 mph7.2 kmh 25.16 in852.0 mb 0.00 in0.0 mm 0.00 in/hr0.0 mm/hr 0.00 in0.0 mm
09:01 AM 66.6°F19.2°C 44.6°F7.0°C 45% 2.0 mph 3.2 kmh 5.8 mph9.3 kmh 25.16 in852.0 mb 0.00 in0.0 mm 0.00 in/hr0.0 mm/hr 0.00 in0.0 mm
08:56 AM 66.2°F19.0°C 45.3°F7.4°C 47% 3.0 mph N4.8 kmh N 5.4 mph8.7 kmh 25.16 in852.0 mb 0.00 in0.0 mm 0.00 in/hr0.0 mm/hr 0.00 in0.0 mm
08:51 AM 65.5°F18.6°C 44.1°F6.7°C 46% 3.0 mph N4.8 kmh N 6.7 mph10.8 kmh 25.16 in852.0 mb 0.00 in0.0 mm 0.00 in/hr0.0 mm/hr 0.00 in0.0 mm
08:46 AM 65.8°F18.8°C 45.0°F7.2°C 47% 3.0 mph N4.8 kmh N 6.3 mph10.1 kmh 25.16 in852.0 mb 0.00 in0.0 mm 0.00 in/hr0.0 mm/hr 0.00 in0.0 mm
08:41 AM 65.3°F18.5°C 45.1°F7.3°C 48% 3.0 mph N4.8 kmh N 8.7 mph14.0 kmh 25.16 in852.0 mb 0.00 in0.0 mm 0.00 in/hr0.0 mm/hr 0.00 in0.0 mm
08:36 AM 64.9°F18.3°C 45.3°F7.4°C 49% 3.0 mph NNW4.8 kmh NNW 6.3 mph10.1 kmh 25.16 in852.0 mb 0.00 in0.0 mm 0.00 in/hr0.0 mm/hr 0.00 in0.0 mm
08:31 AM 65.1°F18.4°C 45.5°F7.5°C 49% 3.0 mph NW4.8 kmh NW 5.4 mph8.7 kmh 25.16 in852.0 mb 0.00 in0.0 mm 0.00 in/hr0.0 mm/hr 0.00 in0.0 mm
08:26 AM 64.8°F18.2°C 45.7°F7.6°C 50% 3.0 mph NNW4.8 kmh NNW 6.3 mph10.1 kmh 25.16 in852.0 mb 0.00 in0.0 mm 0.00 in/hr0.0 mm/hr 0.00 in0.0 mm
08:21 AM 64.8°F18.2°C 47.7°F8.7°C 54% 2.0 mph N3.2 kmh N 4.9 mph7.9 kmh 25.16 in852.0 mb 0.00 in0.0 mm 0.00 in/hr0.0 mm/hr 0.00 in0.0 mm
08:16 AM 64.9°F18.3°C 49.8°F9.9°C 58% 2.0 mph NNW3.2 kmh NNW 4.0 mph6.4 kmh 25.16 in852.0 mb 0.00 in0.0 mm 0.00 in/hr0.0 mm/hr 0.00 in0.0 mm
08:11 AM 63.7°F17.6°C 49.5°F9.7°C 60% 4.0 mph NW6.4 kmh NW 4.5 mph7.2 kmh 25.16 in852.0 mb 0.00 in0.0 mm 0.00 in/hr0.0 mm/hr 0.00 in0.0 mm
08:06 AM 62.4°F16.9°C 48.7°F9.3°C 61% 5.0 mph NW8.0 kmh NW 6.9 mph11.1 kmh 25.16 in852.0 mb 0.00 in0.0 mm 0.00 in/hr0.0 mm/hr 0.00 in0.0 mm
08:01 AM 61.9°F16.6°C 47.8°F8.8°C 60% 6.0 mph NW9.7 kmh NW 7.8 mph12.6 kmh 25.16 in852.0 mb 0.00 in0.0 mm 0.00 in/hr0.0 mm/hr 0.00 in0.0 mm
07:56 AM 61.7°F16.5°C 47.7°F8.7°C 60% 6.0 mph NW9.7 kmh NW 8.3 mph13.4 kmh 25.16 in852.0 mb 0.00 in0.0 mm 0.00 in/hr0.0 mm/hr 0.00 in0.0 mm
07:51 AM 62.1°F16.7°C 47.5°F8.6°C 59% 5.0 mph NW8.0 kmh NW 9.2 mph14.8 kmh 25.16 in852.0 mb 0.00 in0.0 mm 0.00 in/hr0.0 mm/hr 0.00 in0.0 mm
07:46 AM 63.7°F17.6°C 47.7°F8.7°C 56% 4.0 mph NW6.4 kmh NW 5.8 mph9.3 kmh 25.16 in852.0 mb 0.00 in0.0 mm 0.00 in/hr0.0 mm/hr 0.00 in0.0 mm
07:41 AM 63.5°F17.5°C 46.0°F7.8°C 53% 4.0 mph NW6.4 kmh NW 5.4 mph8.7 kmh 25.16 in852.0 mb 0.00 in0.0 mm 0.00 in/hr0.0 mm/hr 0.00 in0.0 mm
07:36 AM 63.0°F17.2°C 45.1°F7.3°C 52% 5.0 mph NNW8.0 kmh NNW 6.3 mph10.1 kmh 25.16 in852.0 mb 0.00 in0.0 mm 0.00 in/hr0.0 mm/hr 0.00 in0.0 mm
07:31 AM 62.2°F16.8°C 45.9°F7.7°C 55% 5.0 mph NNW8.0 kmh NNW 6.7 mph10.8 kmh 25.16 in852.0 mb 0.00 in0.0 mm 0.00 in/hr0.0 mm/hr 0.00 in0.0 mm
07:26 AM 61.3°F16.3°C 46.9°F8.3°C 59% 4.0 mph N6.4 kmh N 6.7 mph10.8 kmh 25.13 in851.0 mb 0.00 in0.0 mm 0.00 in/hr0.0 mm/hr 0.00 in0.0 mm
07:21 AM 59.9°F15.5°C 47.3°F8.5°C 63% 3.0 mph N4.8 kmh N 5.8 mph9.3 kmh 25.13 in851.0 mb 0.00 in0.0 mm 0.00 in/hr0.0 mm/hr 0.00 in0.0 mm
07:16 AM 59.4°F15.2°C 48.0°F8.9°C 66% 2.0 mph N3.2 kmh N 4.5 mph7.2 kmh 25.13 in851.0 mb 0.00 in0.0 mm 0.00 in/hr0.0 mm/hr 0.00 in0.0 mm
07:11 AM 58.8°F14.9°C 47.8°F8.8°C 67% 3.0 mph N4.8 kmh N 4.0 mph6.4 kmh 25.13 in851.0 mb 0.00 in0.0 mm 0.00 in/hr0.0 mm/hr 0.00 in0.0 mm
07:06 AM 59.0°F15.0°C 47.7°F8.7°C 66% 3.0 mph N4.8 kmh N 4.9 mph7.9 kmh 25.13 in851.0 mb 0.00 in0.0 mm 0.00 in/hr0.0 mm/hr 0.00 in0.0 mm
07:01 AM 58.8°F14.9°C 46.6°F8.1°C 64% 1.0 mph N1.6 kmh N 5.4 mph8.7 kmh 25.13 in851.0 mb 0.00 in0.0 mm 0.00 in/hr0.0 mm/hr 0.00 in0.0 mm
06:56 AM 59.2°F15.1°C 46.6°F8.1°C 63% 1.0 mph N1.6 kmh N 4.0 mph6.4 kmh 25.16 in852.0 mb 0.00 in0.0 mm 0.00 in/hr0.0 mm/hr 0.00 in0.0 mm
06:51 AM 59.5°F15.3°C 46.0°F7.8°C 61% 2.0 mph NNE3.2 kmh NNE 4.5 mph7.2 kmh 25.16 in852.0 mb 0.00 in0.0 mm 0.00 in/hr0.0 mm/hr 0.00 in0.0 mm
06:46 AM 60.1°F15.6°C 45.3°F7.4°C 58% 2.0 mph E3.2 kmh E 5.8 mph9.3 kmh 25.16 in852.0 mb 0.00 in0.0 mm 0.00 in/hr0.0 mm/hr 0.00 in0.0 mm
06:41 AM 60.3°F15.7°C 44.4°F6.9°C 56% 1.0 mph E1.6 kmh E 4.5 mph7.2 kmh 25.13 in851.0 mb 0.00 in0.0 mm 0.00 in/hr0.0 mm/hr 0.00 in0.0 mm
06:36 AM 60.6°F15.9°C 43.9°F6.6°C 54% Calm Calm 3.6 mph5.8 kmh 25.13 in851.0 mb 0.00 in0.0 mm 0.00 in/hr0.0 mm/hr 0.00 in0.0 mm
06:31 AM 60.6°F15.9°C 43.9°F6.6°C 54% Calm Calm 4.9 mph7.9 kmh 25.13 in851.0 mb 0.00 in0.0 mm 0.00 in/hr0.0 mm/hr 0.00 in0.0 mm
06:26 AM 60.6°F15.9°C 44.8°F7.1°C 56% 1.0 mph N1.6 kmh N -- 25.13 in851.0 mb 0.00 in0.0 mm 0.00 in/hr0.0 mm/hr 0.00 in0.0 mm
06:21 AM 60.6°F15.9°C 44.8°F7.1°C 56% 2.0 mph N3.2 kmh N 4.9 mph7.9 kmh 25.13 in851.0 mb 0.00 in0.0 mm 0.00 in/hr0.0 mm/hr 0.00 in0.0 mm
06:16 AM 60.4°F15.8°C 44.6°F7.0°C 56% 1.0 mph N1.6 kmh N 4.5 mph7.2 kmh 25.13 in851.0 mb 0.00 in0.0 mm 0.00 in/hr0.0 mm/hr 0.00 in0.0 mm
06:11 AM 60.1°F15.6°C 44.8°F7.1°C 57% Calm Calm -- 25.13 in851.0 mb 0.00 in0.0 mm 0.00 in/hr0.0 mm/hr 0.00 in0.0 mm
06:06 AM 60.6°F15.9°C 44.4°F6.9°C 55% 2.0 mph N3.2 kmh N 3.1 mph5.0 kmh 25.13 in851.0 mb 0.00 in0.0 mm 0.00 in/hr0.0 mm/hr 0.00 in0.0 mm
06:01 AM 61.5°F16.4°C 44.2°F6.8°C 53% 3.0 mph N4.8 kmh N 5.4 mph8.7 kmh 25.13 in851.0 mb 0.00 in0.0 mm 0.00 in/hr0.0 mm/hr 0.00 in0.0 mm
05:56 AM 61.3°F16.3°C 45.0°F7.2°C 55% 4.0 mph N6.4 kmh N 5.4 mph8.7 kmh 25.13 in851.0 mb 0.00 in0.0 mm 0.00 in/hr0.0 mm/hr 0.00 in0.0 mm
05:51 AM 60.8°F16.0°C 45.9°F7.7°C 58% 3.0 mph NNE4.8 kmh NNE 5.4 mph8.7 kmh 25.13 in851.0 mb 0.00 in0.0 mm 0.00 in/hr0.0 mm/hr 0.00 in0.0 mm
05:46 AM 60.6°F15.9°C 45.7°F7.6°C 58% 1.0 mph NE1.6 kmh NE 5.4 mph8.7 kmh 25.13 in851.0 mb 0.00 in0.0 mm 0.00 in/hr0.0 mm/hr 0.00 in0.0 mm
05:41 AM 60.8°F16.0°C 45.5°F7.5°C 57% 1.0 mph NE1.6 kmh NE -- 25.13 in851.0 mb 0.00 in0.0 mm 0.00 in/hr0.0 mm/hr 0.00 in0.0 mm
05:36 AM 61.3°F16.3°C 45.0°F7.2°C 55% 2.0 mph E3.2 kmh E 4.5 mph7.2 kmh 25.13 in851.0 mb 0.00 in0.0 mm 0.00 in/hr0.0 mm/hr 0.00 in0.0 mm
05:31 AM 61.2°F16.2°C 45.9°F7.7°C 57% Calm Calm 4.5 mph7.2 kmh 25.13 in851.0 mb 0.00 in0.0 mm 0.00 in/hr0.0 mm/hr 0.00 in0.0 mm
05:26 AM 60.6°F15.9°C 45.3°F7.4°C 57% Calm Calm 2.7 mph4.3 kmh 25.13 in851.0 mb 0.00 in0.0 mm 0.00 in/hr0.0 mm/hr 0.00 in0.0 mm
05:21 AM 60.8°F16.0°C 45.0°F7.2°C 56% 1.0 mph ESE1.6 kmh ESE 4.0 mph6.4 kmh 25.13 in851.0 mb 0.00 in0.0 mm 0.00 in/hr0.0 mm/hr 0.00 in0.0 mm
05:16 AM 61.0°F16.1°C 45.7°F7.6°C 57% Calm Calm 4.5 mph7.2 kmh 25.13 in851.0 mb 0.00 in0.0 mm 0.00 in/hr0.0 mm/hr 0.00 in0.0 mm
05:11 AM 61.3°F16.3°C 46.0°F7.8°C 57% 1.0 mph ESE1.6 kmh ESE -- 25.13 in851.0 mb 0.00 in0.0 mm 0.00 in/hr0.0 mm/hr 0.00 in0.0 mm
05:06 AM 61.0°F16.1°C 45.7°F7.6°C 57% 1.0 mph ESE1.6 kmh ESE 4.0 mph6.4 kmh 25.13 in851.0 mb 0.00 in0.0 mm 0.00 in/hr0.0 mm/hr 0.00 in0.0 mm
05:01 AM 60.8°F16.0°C 45.9°F7.7°C 58% 1.0 mph ESE1.6 kmh ESE -- 25.13 in851.0 mb 0.00 in0.0 mm 0.00 in/hr0.0 mm/hr 0.00 in0.0 mm
04:56 AM 61.0°F16.1°C 45.1°F7.3°C 56% 2.0 mph ESE3.2 kmh ESE 4.9 mph7.9 kmh 25.13 in851.0 mb 0.00 in0.0 mm 0.00 in/hr0.0 mm/hr 0.00 in0.0 mm
04:51 AM 61.0°F16.1°C 44.8°F7.1°C 55% Calm Calm 4.5 mph7.2 kmh 25.13 in851.0 mb 0.00 in0.0 mm 0.00 in/hr0.0 mm/hr 0.00 in0.0 mm
04:46 AM 61.2°F16.2°C 44.8°F7.1°C 55% Calm Calm -- 25.13 in851.0 mb 0.00 in0.0 mm 0.00 in/hr0.0 mm/hr 0.00 in0.0 mm
04:41 AM 61.2°F16.2°C 43.9°F6.6°C 53% Calm Calm -- 25.13 in851.0 mb 0.00 in0.0 mm 0.00 in/hr0.0 mm/hr 0.00 in0.0 mm
04:36 AM 61.2°F16.2°C 43.9°F6.6°C 53% Calm Calm 3.1 mph5.0 kmh 25.13 in851.0 mb 0.00 in0.0 mm 0.00 in/hr0.0 mm/hr 0.00 in0.0 mm
04:31 AM 61.2°F16.2°C 43.9°F6.6°C 53% Calm Calm -- 25.13 in851.0 mb 0.00 in0.0 mm 0.00 in/hr0.0 mm/hr 0.00 in0.0 mm
04:26 AM 61.3°F16.3°C 43.5°F6.4°C 52% Calm Calm 4.0 mph6.4 kmh 25.13 in851.0 mb 0.00 in0.0 mm 0.00 in/hr0.0 mm/hr 0.00 in0.0 mm
04:21 AM 61.5°F16.4°C 43.7°F6.5°C 52% Calm Calm 3.1 mph5.0 kmh 25.13 in851.0 mb 0.00 in0.0 mm 0.00 in/hr0.0 mm/hr 0.00 in0.0 mm
04:16 AM 61.7°F16.5°C 43.3°F6.3°C 51% Calm Calm 4.0 mph6.4 kmh 25.13 in851.0 mb 0.00 in0.0 mm 0.00 in/hr0.0 mm/hr 0.00 in0.0 mm
04:11 AM 61.9°F16.6°C 42.4°F5.8°C 49% Calm Calm -- 25.13 in851.0 mb 0.00 in0.0 mm 0.00 in/hr0.0 mm/hr 0.00 in0.0 mm
04:06 AM 62.1°F16.7°C 42.1°F5.6°C 48% Calm Calm -- 25.13 in851.0 mb 0.00 in0.0 mm 0.00 in/hr0.0 mm/hr 0.00 in0.0 mm
04:01 AM 62.2°F16.8°C 42.3°F5.7°C 48% Calm Calm -- 25.13 in851.0 mb 0.00 in0.0 mm 0.00 in/hr0.0 mm/hr 0.00 in0.0 mm
03:56 AM 62.4°F16.9°C 42.4°F5.8°C 48% Calm Calm -- 25.13 in851.0 mb 0.00 in0.0 mm 0.00 in/hr0.0 mm/hr 0.00 in0.0 mm
03:51 AM 62.8°F17.1°C 42.8°F6.0°C 48% 1.0 mph ESE1.6 kmh ESE 3.1 mph5.0 kmh 25.13 in851.0 mb 0.00 in0.0 mm 0.00 in/hr0.0 mm/hr 0.00 in0.0 mm
03:46 AM 62.8°F17.1°C 42.8°F6.0°C 48% 1.0 mph ESE1.6 kmh ESE 5.4 mph8.7 kmh 25.13 in851.0 mb 0.00 in0.0 mm 0.00 in/hr0.0 mm/hr 0.00 in0.0 mm
03:41 AM 62.6°F17.0°C 42.6°F5.9°C 48% Calm Calm 4.5 mph7.2 kmh 25.13 in851.0 mb 0.00 in0.0 mm 0.00 in/hr0.0 mm/hr 0.00 in0.0 mm
03:36 AM 62.6°F17.0°C 42.1°F5.6°C 47% Calm Calm -- 25.13 in851.0 mb 0.00 in0.0 mm 0.00 in/hr0.0 mm/hr 0.00 in0.0 mm
03:31 AM 62.4°F16.9°C 42.4°F5.8°C 48% Calm Calm -- 25.13 in851.0 mb 0.00 in0.0 mm 0.00 in/hr0.0 mm/hr 0.00 in0.0 mm
03:25 AM 62.2°F16.8°C 42.3°F5.7°C 48% Calm Calm 3.1 mph5.0 kmh 25.13 in851.0 mb 0.00 in0.0 mm 0.00 in/hr0.0 mm/hr 0.00 in0.0 mm
03:20 AM 62.4°F16.9°C 42.4°F5.8°C 48% Calm Calm 3.1 mph5.0 kmh 25.13 in851.0 mb 0.00 in0.0 mm 0.00 in/hr0.0 mm/hr 0.00 in0.0 mm
03:15 AM 62.4°F16.9°C 42.4°F5.8°C 48% Calm Calm 3.6 mph5.8 kmh 25.13 in851.0 mb 0.00 in0.0 mm 0.00 in/hr0.0 mm/hr 0.00 in0.0 mm
03:10 AM 62.6°F17.0°C 42.1°F5.6°C 47% Calm Calm 3.1 mph5.0 kmh 25.13 in851.0 mb 0.00 in0.0 mm 0.00 in/hr0.0 mm/hr 0.00 in0.0 mm
03:05 AM 63.1°F17.3°C 42.1°F5.6°C 46% Calm Calm -- 25.13 in851.0 mb 0.00 in0.0 mm 0.00 in/hr0.0 mm/hr 0.00 in0.0 mm
03:00 AM 63.1°F17.3°C 41.4°F5.2°C 45% Calm Calm -- 25.13 in851.0 mb 0.00 in0.0 mm 0.00 in/hr0.0 mm/hr 0.00 in0.0 mm
02:55 AM 63.5°F17.5°C 41.2°F5.1°C 44% Calm Calm 2.7 mph4.3 kmh 25.10 in850.0 mb 0.00 in0.0 mm 0.00 in/hr0.0 mm/hr 0.00 in0.0 mm
02:50 AM 63.5°F17.5°C 41.2°F5.1°C 44% Calm Calm -- 25.10 in850.0 mb 0.00 in0.0 mm 0.00 in/hr0.0 mm/hr 0.00 in0.0 mm
02:45 AM 63.5°F17.5°C 41.2°F5.1°C 44% Calm Calm 3.6 mph5.8 kmh 25.10 in850.0 mb 0.00 in0.0 mm 0.00 in/hr0.0 mm/hr 0.00 in0.0 mm
02:40 AM 63.5°F17.5°C 41.2°F5.1°C 44% 1.0 mph ESE1.6 kmh ESE 4.5 mph7.2 kmh 25.10 in850.0 mb 0.00 in0.0 mm 0.00 in/hr0.0 mm/hr 0.00 in0.0 mm
02:35 AM 63.9°F17.7°C 42.1°F5.6°C 45% 2.0 mph E3.2 kmh E 4.5 mph7.2 kmh 25.10 in850.0 mb 0.00 in0.0 mm 0.00 in/hr0.0 mm/hr 0.00 in0.0 mm
02:30 AM 63.7°F17.6°C 41.9°F5.5°C 45% 2.0 mph E3.2 kmh E 5.4 mph8.7 kmh 25.10 in850.0 mb 0.00 in0.0 mm 0.00 in/hr0.0 mm/hr 0.00 in0.0 mm
02:25 AM 63.1°F17.3°C 42.6°F5.9°C 47% Calm Calm 3.6 mph5.8 kmh 25.10 in850.0 mb 0.00 in0.0 mm 0.00 in/hr0.0 mm/hr 0.00 in0.0 mm
02:20 AM 63.0°F17.2°C 42.4°F5.8°C 47% Calm Calm -- 25.10 in850.0 mb 0.00 in0.0 mm 0.00 in/hr0.0 mm/hr 0.00 in0.0 mm
02:15 AM 63.0°F17.2°C 42.4°F5.8°C 47% Calm Calm -- 25.10 in850.0 mb 0.00 in0.0 mm 0.00 in/hr0.0 mm/hr 0.00 in0.0 mm
02:10 AM 63.1°F17.3°C 42.6°F5.9°C 47% Calm Calm -- 25.10 in850.0 mb 0.00 in0.0 mm 0.00 in/hr0.0 mm/hr 0.00 in0.0 mm
02:05 AM 63.5°F17.5°C 42.3°F5.7°C 46% Calm Calm 3.1 mph5.0 kmh 25.10 in850.0 mb 0.00 in0.0 mm 0.00 in/hr0.0 mm/hr 0.00 in0.0 mm
02:00 AM 63.7°F17.6°C 42.4°F5.8°C 46% 2.0 mph ENE3.2 kmh ENE 3.1 mph5.0 kmh 25.10 in850.0 mb 0.00 in0.0 mm 0.00 in/hr0.0 mm/hr 0.00 in0.0 mm
01:55 AM 63.9°F17.7°C 42.1°F5.6°C 45% 2.0 mph ESE3.2 kmh ESE 5.8 mph9.3 kmh 25.10 in850.0 mb 0.00 in0.0 mm 0.00 in/hr0.0 mm/hr 0.00 in0.0 mm
01:50 AM 64.6°F18.1°C 41.5°F5.3°C 43% Calm Calm 4.5 mph7.2 kmh 25.10 in850.0 mb 0.00 in0.0 mm 0.00 in/hr0.0 mm/hr 0.00 in0.0 mm
01:45 AM 64.6°F18.1°C 41.5°F5.3°C 43% Calm Calm -- 25.10 in850.0 mb 0.00 in0.0 mm 0.00 in/hr0.0 mm/hr 0.00 in0.0 mm
01:40 AM 64.8°F18.2°C 42.3°F5.7°C 44% Calm Calm -- 25.10 in850.0 mb 0.00 in0.0 mm 0.00 in/hr0.0 mm/hr 0.00 in0.0 mm
01:35 AM 65.1°F18.4°C 42.1°F5.6°C 43% Calm Calm -- 25.10 in850.0 mb 0.00 in0.0 mm 0.00 in/hr0.0 mm/hr 0.00 in0.0 mm
01:30 AM 65.5°F18.6°C 41.7°F5.4°C 42% Calm Calm 3.1 mph5.0 kmh 25.10 in850.0 mb 0.00 in0.0 mm 0.00 in/hr0.0 mm/hr 0.00 in0.0 mm
01:25 AM 65.5°F18.6°C 40.5°F4.7°C 40% Calm Calm -- 25.10 in850.0 mb 0.00 in0.0 mm 0.00 in/hr0.0 mm/hr 0.00 in0.0 mm
01:20 AM 65.5°F18.6°C 40.5°F4.7°C 40% Calm Calm -- 25.10 in850.0 mb 0.00 in0.0 mm 0.00 in/hr0.0 mm/hr 0.00 in0.0 mm
01:15 AM 65.3°F18.5°C 40.3°F4.6°C 40% Calm Calm -- 25.10 in850.0 mb 0.00 in0.0 mm 0.00 in/hr0.0 mm/hr 0.00 in0.0 mm
01:10 AM 65.5°F18.6°C 39.9°F4.4°C 39% 1.0 mph SSE1.6 kmh SSE 3.1 mph5.0 kmh 25.10 in850.0 mb 0.00 in0.0 mm 0.00 in/hr0.0 mm/hr 0.00 in0.0 mm
01:05 AM 65.7°F18.7°C 40.1°F4.5°C 39% 1.0 mph SSE1.6 kmh SSE 3.6 mph5.8 kmh 25.10 in850.0 mb 0.00 in0.0 mm 0.00 in/hr0.0 mm/hr 0.00 in0.0 mm
01:00 AM 65.8°F18.8°C 40.1°F4.5°C 39% 2.0 mph SSE3.2 kmh SSE 3.6 mph5.8 kmh 25.10 in850.0 mb 0.00 in0.0 mm 0.00 in/hr0.0 mm/hr 0.00 in0.0 mm
12:55 AM 66.0°F18.9°C 40.3°F4.6°C 39% 2.0 mph S3.2 kmh S 5.4 mph8.7 kmh 25.10 in850.0 mb 0.00 in0.0 mm 0.00 in/hr0.0 mm/hr 0.00 in0.0 mm
12:50 AM 66.0°F18.9°C 38.3°F3.5°C 36% 2.0 mph S3.2 kmh S 4.0 mph6.4 kmh 25.10 in850.0 mb 0.00 in0.0 mm 0.00 in/hr0.0 mm/hr 0.00 in0.0 mm
12:45 AM 66.4°F19.1°C 38.7°F3.7°C 36% 3.0 mph S4.8 kmh S 5.4 mph8.7 kmh 25.10 in850.0 mb 0.00 in0.0 mm 0.00 in/hr0.0 mm/hr 0.00 in0.0 mm
12:40 AM 66.4°F19.1°C 39.4°F4.1°C 37% 4.0 mph S6.4 kmh S 6.7 mph10.8 kmh 25.10 in850.0 mb 0.00 in0.0 mm 0.00 in/hr0.0 mm/hr 0.00 in0.0 mm
12:35 AM 66.4°F19.1°C 38.7°F3.7°C 36% 5.0 mph S8.0 kmh S 6.7 mph10.8 kmh 25.10 in850.0 mb 0.00 in0.0 mm 0.00 in/hr0.0 mm/hr 0.00 in0.0 mm
12:30 AM 66.0°F18.9°C 38.3°F3.5°C 36% 4.0 mph S6.4 kmh S 6.7 mph10.8 kmh 25.10 in850.0 mb 0.00 in0.0 mm 0.00 in/hr0.0 mm/hr 0.00 in0.0 mm
12:25 AM 65.5°F18.6°C 38.5°F3.6°C 37% 3.0 mph SSE4.8 kmh SSE 5.4 mph8.7 kmh 25.10 in850.0 mb 0.00 in0.0 mm 0.00 in/hr0.0 mm/hr 0.00 in0.0 mm
12:20 AM 65.7°F18.7°C 38.7°F3.7°C 37% 3.0 mph SE4.8 kmh SE 5.4 mph8.7 kmh 25.10 in850.0 mb 0.00 in0.0 mm 0.00 in/hr0.0 mm/hr 0.00 in0.0 mm
12:15 AM 66.2°F19.0°C 39.2°F4.0°C 37% 4.0 mph S6.4 kmh S 6.3 mph10.1 kmh 25.10 in850.0 mb 0.00 in0.0 mm 0.00 in/hr0.0 mm/hr 0.00 in0.0 mm
12:10 AM 66.6°F19.2°C 38.8°F3.8°C 36% 5.0 mph S8.0 kmh S 7.4 mph11.9 kmh 25.10 in850.0 mb 0.00 in0.0 mm 0.00 in/hr0.0 mm/hr 0.00 in0.0 mm
12:05 AM 66.2°F19.0°C 39.2°F4.0°C 37% 4.0 mph SSW6.4 kmh SSW 6.3 mph10.1 kmh 25.10 in850.0 mb 0.00 in0.0 mm 0.00 in/hr0.0 mm/hr 0.00 in0.0 mm
12:00 AM 66.6°F19.2°C 38.8°F3.8°C 36% 4.0 mph SSW6.4 kmh SSW 5.8 mph9.3 kmh 25.10 in850.0 mb 0.00 in0.0 mm 0.00 in/hr0.0 mm/hr 0.00 in0.0 mm